createdAt,value
2017-05-25T00:01:53.426Z,3.68
2017-05-25T00:04:21.116Z,6.65
2017-05-25T00:06:48.772Z,3.13
2017-05-25T00:09:16.834Z,4.65
2017-05-25T00:11:44.494Z,4.85
2017-05-25T00:14:12.924Z,4.58
2017-05-25T00:16:40.611Z,5.00
2017-05-25T00:19:09.024Z,5.70
2017-05-25T00:21:37.016Z,2.82
2017-05-25T00:24:04.660Z,3.05
2017-05-25T00:26:32.320Z,4.28
2017-05-25T00:29:00.001Z,3.02
2017-05-25T00:31:27.661Z,6.10
2017-05-25T00:33:56.371Z,3.82
2017-05-25T00:36:24.021Z,3.02
2017-05-25T00:38:51.662Z,5.43
2017-05-25T00:41:19.341Z,3.62
2017-05-25T00:43:46.993Z,5.58
2017-05-25T00:46:15.012Z,5.28
2017-05-25T00:48:42.664Z,2.67
2017-05-25T00:51:10.320Z,3.70
2017-05-25T00:53:38.001Z,4.55
2017-05-25T00:56:05.653Z,4.90
2017-05-25T00:58:34.504Z,3.00
2017-05-25T01:01:02.158Z,3.95
2017-05-25T01:03:29.819Z,6.62
2017-05-25T01:05:57.488Z,3.22
2017-05-25T01:08:25.135Z,4.63
2017-05-25T01:10:53.118Z,6.53
2017-05-25T01:13:21.541Z,3.80
2017-05-25T01:15:49.181Z,4.78
2017-05-25T01:18:16.862Z,4.95
2017-05-25T01:20:44.515Z,3.28
2017-05-25T01:23:12.474Z,7.65
2017-05-25T01:25:40.126Z,2.88
2017-05-25T01:28:08.536Z,3.90
2017-05-25T01:30:37.009Z,3.88
2017-05-25T01:33:04.662Z,2.12
2017-05-25T01:35:33.366Z,5.38
2017-05-25T01:38:01.005Z,3.38
2017-05-25T01:40:28.640Z,4.88
2017-05-25T01:42:56.310Z,5.12
2017-05-25T01:45:24.721Z,4.53
2017-05-25T01:47:52.655Z,3.32
2017-05-25T01:50:20.310Z,3.25
2017-05-25T01:52:48.735Z,2.75
2017-05-25T01:55:17.224Z,3.77
2017-05-25T01:57:44.863Z,6.62
2017-05-25T02:00:12.795Z,5.42
2017-05-25T02:02:40.440Z,4.15
2017-05-25T02:05:08.092Z,4.48
2017-05-25T02:07:35.753Z,3.73
2017-05-25T02:10:03.411Z,5.25
2017-05-25T02:12:31.082Z,7.28
2017-05-25T02:14:58.764Z,4.23
2017-05-25T02:17:26.423Z,3.33
2017-05-25T02:19:54.065Z,5.57
2017-05-25T02:22:22.015Z,4.22
2017-05-25T02:24:49.763Z,2.63
2017-05-25T02:27:17.410Z,3.80
2017-05-25T02:29:45.860Z,5.38
2017-05-25T02:32:13.572Z,5.48
2017-05-25T02:34:41.591Z,2.70
2017-05-25T02:37:09.253Z,5.35
2017-05-25T02:39:37.675Z,3.17
2017-05-25T02:42:05.357Z,5.13
2017-05-25T02:44:33.000Z,4.92
2017-05-25T02:47:01.736Z,4.28
2017-05-25T02:49:29.438Z,4.40
2017-05-25T02:51:57.077Z,4.48
2017-05-25T02:54:24.762Z,4.77
2017-05-25T02:56:52.417Z,3.78
2017-05-25T02:59:21.237Z,3.90
2017-05-25T03:01:48.890Z,6.52
2017-05-25T03:04:17.301Z,6.08
2017-05-25T03:06:44.974Z,4.82
2017-05-25T03:09:12.635Z,3.85
2017-05-25T03:11:40.592Z,4.80
2017-05-25T03:14:08.998Z,4.85
2017-05-25T03:16:37.424Z,6.72
2017-05-25T03:19:05.104Z,7.73
2017-05-25T03:21:32.765Z,3.38
2017-05-25T03:24:00.764Z,3.90
2017-05-25T03:26:28.404Z,7.73
2017-05-25T03:28:56.078Z,4.18
2017-05-25T03:31:24.521Z,6.65
2017-05-25T03:33:52.941Z,6.10
2017-05-25T03:36:20.945Z,3.97
2017-05-25T03:38:49.361Z,5.58
2017-05-25T03:41:17.025Z,4.43
2017-05-25T03:43:46.731Z,5.53
2017-05-25T03:46:14.394Z,5.42
2017-05-25T03:48:43.210Z,6.83
2017-05-25T03:51:11.121Z,4.70
2017-05-25T03:53:38.821Z,4.68
2017-05-25T03:56:07.265Z,3.40
2017-05-25T03:58:36.245Z,3.30
2017-05-25T04:01:04.464Z,3.43
2017-05-25T04:03:33.314Z,5.68
2017-05-25T04:06:02.397Z,8.47
2017-05-25T04:08:30.850Z,4.62
2017-05-25T04:10:58.512Z,5.53
2017-05-25T04:13:26.524Z,3.07
2017-05-25T04:15:54.169Z,6.23
2017-05-25T04:18:26.562Z,3.52
2017-05-25T04:20:56.102Z,4.85
2017-05-25T04:23:23.754Z,3.63
2017-05-25T04:25:51.798Z,3.30
2017-05-25T04:28:21.043Z,4.45
2017-05-25T04:30:49.257Z,4.77
2017-05-25T04:33:17.019Z,5.35
2017-05-25T04:35:45.441Z,4.72
2017-05-25T04:38:13.474Z,7.52
2017-05-25T04:40:41.439Z,5.48
2017-05-25T04:43:10.949Z,6.28
2017-05-25T04:45:38.768Z,5.07
2017-05-25T04:48:06.418Z,5.97
2017-05-25T04:50:34.376Z,6.83
2017-05-25T04:53:02.033Z,7.02
2017-05-25T04:55:29.877Z,4.10
2017-05-25T04:57:57.554Z,4.17
2017-05-25T05:00:27.376Z,4.07
2017-05-25T05:02:57.345Z,4.48
2017-05-25T05:05:25.912Z,5.35
2017-05-25T05:07:53.608Z,4.18
2017-05-25T05:10:22.044Z,6.05
2017-05-25T05:12:50.157Z,7.13
2017-05-25T05:15:18.109Z,7.00
2017-05-25T05:17:45.973Z,7.70
2017-05-25T05:20:13.684Z,8.02
2017-05-25T05:22:41.373Z,4.52
2017-05-25T05:25:10.270Z,6.43
2017-05-25T05:27:38.753Z,4.95
2017-05-25T05:30:06.405Z,5.25
2017-05-25T05:32:34.062Z,6.28
2017-05-25T05:35:01.737Z,5.68
2017-05-25T05:37:29.387Z,8.57
2017-05-25T05:39:58.110Z,6.98
2017-05-25T05:42:25.764Z,8.95
2017-05-25T05:44:53.460Z,9.05
2017-05-25T05:47:21.132Z,7.42
2017-05-25T05:49:49.550Z,5.85
2017-05-25T05:52:17.620Z,5.75
2017-05-25T05:54:45.273Z,9.58
2017-05-25T05:57:12.930Z,8.42
2017-05-25T05:59:41.381Z,6.65
2017-05-25T06:02:09.785Z,9.87
2017-05-25T06:04:37.737Z,6.40
2017-05-25T06:07:06.157Z,5.93
2017-05-25T06:09:34.629Z,7.00
2017-05-25T06:12:02.309Z,4.73
2017-05-25T06:14:29.938Z,9.46
2017-05-25T06:16:58.624Z,5.88
2017-05-25T06:19:27.023Z,5.86
2017-05-25T06:21:54.738Z,4.64
2017-05-25T06:24:22.406Z,4.34
2017-05-25T06:26:50.033Z,8.82
2017-05-25T06:29:18.149Z,6.56
2017-05-25T06:31:45.788Z,4.56
2017-05-25T06:34:13.421Z,4.08
2017-05-25T06:36:41.840Z,5.38
2017-05-25T06:39:10.238Z,9.14
2017-05-25T06:41:38.222Z,6.66
2017-05-25T06:44:05.861Z,5.66
2017-05-25T06:46:33.534Z,5.48
2017-05-25T06:49:01.168Z,5.92
2017-05-25T06:51:28.788Z,4.56
2017-05-25T06:53:56.736Z,8.82
2017-05-25T06:56:24.367Z,6.20
2017-05-25T06:58:52.018Z,5.92
2017-05-25T07:01:19.786Z,6.16
2017-05-25T07:03:47.432Z,9.68
2017-05-25T07:06:15.600Z,5.98
2017-05-25T07:08:43.222Z,10.72
2017-05-25T07:11:10.860Z,5.34
2017-05-25T07:13:38.553Z,8.28
2017-05-25T07:16:06.176Z,8.42
2017-05-25T07:18:34.849Z,5.50
2017-05-25T07:21:02.485Z,6.44
2017-05-25T07:23:30.101Z,6.06
2017-05-25T07:25:57.840Z,7.14
2017-05-25T07:28:25.468Z,8.00
2017-05-25T07:30:53.403Z,5.94
2017-05-25T07:33:21.031Z,5.20
2017-05-25T07:35:48.887Z,5.08
2017-05-25T07:38:16.586Z,6.12
2017-05-25T07:40:44.243Z,4.52
2017-05-25T07:43:12.253Z,4.46
2017-05-25T07:45:40.057Z,6.26
2017-05-25T07:48:08.492Z,5.70
2017-05-25T07:50:36.154Z,5.32
2017-05-25T07:53:04.554Z,4.08
2017-05-25T07:55:32.533Z,4.86
2017-05-25T07:58:00.153Z,6.92
2017-05-25T08:00:27.836Z,8.66
2017-05-25T08:02:55.489Z,5.36
2017-05-25T08:05:23.148Z,4.35
2017-05-25T08:07:51.096Z,6.05
2017-05-25T08:10:18.754Z,8.42
2017-05-25T08:12:46.414Z,8.15
2017-05-25T08:15:14.100Z,8.58
2017-05-25T08:17:41.753Z,4.55
2017-05-25T08:20:09.739Z,3.28
2017-05-25T08:22:37.395Z,4.08
2017-05-25T08:25:05.054Z,4.48
2017-05-25T08:27:32.733Z,7.43
2017-05-25T08:30:00.482Z,5.15
2017-05-25T08:32:28.533Z,5.65
2017-05-25T08:34:56.200Z,13.45
2017-05-25T08:37:23.873Z,5.18
2017-05-25T08:39:51.552Z,5.20
2017-05-25T08:42:19.259Z,5.67
2017-05-25T08:44:47.322Z,5.52
2017-05-25T08:47:15.096Z,4.02
2017-05-25T08:49:42.755Z,5.95
2017-05-25T08:52:10.481Z,7.13
2017-05-25T08:54:38.173Z,6.28
2017-05-25T08:57:06.867Z,3.76
2017-05-25T08:59:35.607Z,5.34
2017-05-25T09:02:04.649Z,5.38
2017-05-25T09:04:32.376Z,9.66
2017-05-25T09:07:00.006Z,4.20
2017-05-25T09:09:28.005Z,4.74
2017-05-25T09:11:55.630Z,4.78
2017-05-25T09:14:23.265Z,5.00
2017-05-25T09:16:50.938Z,5.32
2017-05-25T09:19:18.580Z,5.02
2017-05-25T09:21:49.057Z,9.42
2017-05-25T09:24:16.837Z,4.66
2017-05-25T09:26:44.460Z,4.46
2017-05-25T09:29:12.170Z,4.68
2017-05-25T09:31:45.922Z,6.00
2017-05-25T09:34:14.049Z,6.12
2017-05-25T09:36:42.445Z,4.88
2017-05-25T09:39:10.075Z,5.36
2017-05-25T09:41:37.734Z,5.12
2017-05-25T09:44:05.356Z,3.22
2017-05-25T09:46:37.805Z,3.02
2017-05-25T09:49:11.045Z,2.68
2017-05-25T09:51:41.057Z,2.40
2017-05-25T09:54:09.006Z,4.32
2017-05-25T09:56:36.626Z,2.44
2017-05-25T09:59:06.130Z,2.06
2017-05-25T10:01:37.258Z,2.00
2017-05-25T10:04:08.098Z,3.28
2017-05-25T10:06:36.619Z,2.34
2017-05-25T10:09:05.555Z,3.22
2017-05-25T10:11:34.756Z,3.20
2017-05-25T10:14:03.891Z,2.66
2017-05-25T10:16:31.905Z,2.42
2017-05-25T10:18:59.546Z,1.80
2017-05-25T10:21:27.217Z,3.26
2017-05-25T10:23:54.877Z,1.74
2017-05-25T10:26:22.511Z,2.60
2017-05-25T10:28:51.262Z,2.74
2017-05-25T10:31:18.951Z,3.04
2017-05-25T10:33:46.581Z,1.98
2017-05-25T10:36:15.000Z,3.46
2017-05-25T10:38:42.625Z,3.56
2017-05-25T10:41:10.755Z,3.54
2017-05-25T10:43:39.186Z,4.74
2017-05-25T10:46:06.864Z,4.26
2017-05-25T10:48:35.276Z,2.96
2017-05-25T10:51:02.909Z,2.62
2017-05-25T10:53:30.565Z,4.32
2017-05-25T10:55:58.980Z,2.27
2017-05-25T10:58:27.017Z,2.25
2017-05-25T11:00:54.674Z,2.55
2017-05-25T11:03:22.347Z,2.92
2017-05-25T11:05:50.044Z,3.67
2017-05-25T11:08:17.764Z,3.40
2017-05-25T11:10:46.148Z,3.35
2017-05-25T11:13:13.804Z,4.10
2017-05-25T11:15:42.229Z,1.92
2017-05-25T11:18:09.904Z,2.78
2017-05-25T11:20:37.560Z,2.57
2017-05-25T11:23:06.020Z,4.46
2017-05-25T11:25:33.669Z,4.12
2017-05-25T11:28:01.359Z,3.12
2017-05-25T11:30:29.383Z,3.16
2017-05-25T11:32:57.032Z,1.80
2017-05-25T11:35:24.705Z,2.22
2017-05-25T11:37:53.213Z,2.24
2017-05-25T11:40:20.836Z,1.94
2017-05-25T11:42:49.574Z,1.98
2017-05-25T11:45:17.218Z,1.56
2017-05-25T11:47:44.843Z,2.28
2017-05-25T11:50:13.261Z,2.14
2017-05-25T11:52:41.656Z,3.18
2017-05-25T11:55:10.461Z,2.02
2017-05-25T11:57:38.124Z,1.64
2017-05-25T12:00:05.742Z,3.02
2017-05-25T12:02:33.387Z,1.88
2017-05-25T12:05:01.070Z,2.20
2017-05-25T12:07:30.036Z,2.62
2017-05-25T12:09:58.456Z,2.60
2017-05-25T12:12:26.206Z,2.23
2017-05-25T12:14:53.925Z,1.33
2017-05-25T12:17:22.425Z,1.45
2017-05-25T12:19:50.515Z,2.08
2017-05-25T12:22:18.188Z,1.45
2017-05-25T12:24:45.845Z,1.93
2017-05-25T12:27:14.290Z,1.83
2017-05-25T12:29:42.717Z,2.62
2017-05-25T12:32:10.686Z,3.03
2017-05-25T12:34:38.336Z,1.60
2017-05-25T12:37:06.125Z,1.80
2017-05-25T12:39:34.575Z,1.95
2017-05-25T12:42:02.234Z,2.22
2017-05-25T12:44:30.250Z,2.73
2017-05-25T12:46:57.932Z,1.68
2017-05-25T12:49:25.604Z,3.88
2017-05-25T12:51:53.290Z,2.28
2017-05-25T12:54:20.953Z,1.35
2017-05-25T12:56:49.050Z,2.55
2017-05-25T12:59:16.764Z,2.83
2017-05-25T13:01:44.415Z,1.52
2017-05-25T13:04:12.121Z,2.78
2017-05-25T13:06:39.776Z,2.02
2017-05-25T13:09:08.563Z,2.00
2017-05-25T13:11:36.184Z,2.20
2017-05-25T13:14:04.608Z,1.24
2017-05-25T13:16:32.369Z,1.92
2017-05-25T13:19:00.033Z,1.70
2017-05-25T13:21:28.473Z,3.40
2017-05-25T13:23:56.865Z,2.12
2017-05-25T13:26:25.677Z,2.08
2017-05-25T13:28:54.096Z,2.40
2017-05-25T13:31:21.722Z,1.76
2017-05-25T13:33:49.429Z,2.02
2017-05-25T13:36:17.108Z,1.50
2017-05-25T13:38:44.778Z,2.18
2017-05-25T13:41:12.430Z,2.07
2017-05-25T13:43:40.122Z,1.75
2017-05-25T13:46:07.762Z,1.57
2017-05-25T13:48:35.702Z,1.68
2017-05-25T13:51:03.352Z,1.62
2017-05-25T13:53:31.022Z,2.57
2017-05-25T13:55:58.698Z,1.43
2017-05-25T13:58:27.118Z,1.67
2017-05-25T14:00:55.898Z,2.83
2017-05-25T14:03:23.542Z,3.17
2017-05-25T14:05:51.198Z,1.88
2017-05-25T14:08:18.882Z,3.57
2017-05-25T14:10:46.568Z,2.00
2017-05-25T14:13:14.529Z,1.83
2017-05-25T14:15:43.038Z,1.58
2017-05-25T14:18:11.526Z,1.98
2017-05-25T14:20:39.204Z,1.98
2017-05-25T14:23:07.625Z,2.02
2017-05-25T14:25:36.349Z,2.00
2017-05-25T14:28:03.999Z,1.62
2017-05-25T14:30:31.655Z,1.85
2017-05-25T14:33:00.100Z,3.85
2017-05-25T14:35:27.762Z,1.90
2017-05-25T14:37:56.529Z,2.52
2017-05-25T14:40:24.189Z,3.60
2017-05-25T14:42:52.955Z,2.22
2017-05-25T14:45:20.683Z,1.93
2017-05-25T14:47:48.345Z,2.73
2017-05-25T14:50:16.301Z,2.17
2017-05-25T14:52:43.971Z,2.87
2017-05-25T14:55:11.624Z,3.57
2017-05-25T14:57:39.358Z,5.08
2017-05-25T15:00:07.013Z,2.90
2017-05-25T15:02:35.041Z,2.42
2017-05-25T15:05:02.705Z,1.75
2017-05-25T15:07:30.354Z,4.62
2017-05-25T15:09:58.258Z,2.98
2017-05-25T15:12:26.179Z,11.98
2017-05-25T15:14:54.215Z,5.10
2017-05-25T15:17:22.630Z,4.53
2017-05-25T15:19:50.298Z,4.33
2017-05-25T15:22:18.037Z,3.23
2017-05-25T15:24:46.465Z,1.92
2017-05-25T15:27:14.408Z,2.57
2017-05-25T15:29:42.069Z,3.20
2017-05-25T15:32:10.504Z,3.07
2017-05-25T15:34:38.197Z,10.72
2017-05-25T15:37:06.624Z,3.77
2017-05-25T15:39:34.657Z,4.83
2017-05-25T15:42:03.069Z,3.67
2017-05-25T15:44:30.728Z,3.13
2017-05-25T15:46:58.398Z,4.30
2017-05-25T15:49:26.063Z,6.57
2017-05-25T15:51:54.034Z,4.13
2017-05-25T15:54:22.449Z,4.65
2017-05-25T15:56:50.109Z,5.70
2017-05-25T15:59:17.793Z,4.97
2017-05-25T16:01:45.441Z,5.87
2017-05-25T16:04:13.515Z,6.78
2017-05-25T16:06:41.992Z,5.05
2017-05-25T16:09:09.658Z,5.02
2017-05-25T16:11:37.333Z,5.42
2017-05-25T16:14:04.984Z,6.55
2017-05-25T16:16:33.050Z,5.05
2017-05-25T16:19:00.776Z,7.53
2017-05-25T16:21:28.433Z,5.30
2017-05-25T16:23:56.161Z,6.20
2017-05-25T16:26:23.837Z,5.65
2017-05-25T16:28:51.805Z,7.82
2017-05-25T16:31:19.478Z,7.22
2017-05-25T16:33:47.157Z,10.33
2017-05-25T16:36:14.841Z,6.67
2017-05-25T16:38:42.483Z,6.68
2017-05-25T16:41:10.651Z,6.75
2017-05-25T16:43:38.318Z,6.10
2017-05-25T16:46:07.453Z,6.13
2017-05-25T16:48:35.125Z,6.97
2017-05-25T16:51:02.856Z,6.17
2017-05-25T16:53:30.980Z,7.47
2017-05-25T16:55:58.624Z,9.90
2017-05-25T16:58:26.281Z,6.58
2017-05-25T17:00:54.015Z,7.95
2017-05-25T17:03:22.557Z,6.73
2017-05-25T17:05:50.646Z,5.87
2017-05-25T17:08:18.292Z,5.65
2017-05-25T17:10:46.190Z,6.75
2017-05-25T17:13:13.937Z,6.77
2017-05-25T17:15:41.601Z,8.82
2017-05-25T17:18:09.785Z,7.00
2017-05-25T17:20:37.470Z,7.68
2017-05-25T17:23:05.886Z,7.30
2017-05-25T17:25:33.570Z,7.10
2017-05-25T17:28:01.215Z,7.00
2017-05-25T17:30:29.911Z,7.23
2017-05-25T17:32:57.576Z,7.78
2017-05-25T17:35:25.247Z,7.37
2017-05-25T17:37:52.942Z,5.95
2017-05-25T17:40:20.602Z,9.93
2017-05-25T17:42:48.608Z,9.60
2017-05-25T17:45:17.043Z,7.73
2017-05-25T17:47:45.456Z,8.07
2017-05-25T17:50:13.145Z,10.48
2017-05-25T17:52:41.565Z,10.47
2017-05-25T17:55:09.546Z,11.15
2017-05-25T17:57:37.202Z,9.32
2017-05-25T18:00:04.860Z,8.62
2017-05-25T18:02:32.566Z,8.88
2017-05-25T18:05:01.033Z,25.32
2017-05-25T18:07:29.123Z,12.57
2017-05-25T18:09:57.013Z,9.82
2017-05-25T18:12:25.545Z,12.38
2017-05-25T18:14:53.270Z,14.90
2017-05-25T18:17:20.930Z,11.13
2017-05-25T18:19:49.357Z,19.12
2017-05-25T18:22:17.288Z,22.73
2017-05-25T18:24:44.967Z,33.23
2017-05-25T18:27:12.639Z,8.88
2017-05-25T18:29:41.346Z,17.38
2017-05-25T18:32:09.052Z,13.73
2017-05-25T18:34:36.700Z,7.28
2017-05-25T18:37:04.673Z,11.57
2017-05-25T18:39:32.330Z,9.87
2017-05-25T18:41:59.988Z,9.47
2017-05-25T18:44:27.752Z,11.42
2017-05-25T18:46:55.396Z,10.20
2017-05-25T18:49:24.134Z,12.92
2017-05-25T18:51:52.544Z,9.02
2017-05-25T18:54:20.244Z,12.13
2017-05-25T18:56:48.018Z,13.02
2017-05-25T18:59:15.676Z,8.77
2017-05-25T19:01:43.679Z,17.58
2017-05-25T19:04:11.347Z,21.10
2017-05-25T19:06:39.820Z,49.17
2017-05-25T19:09:07.510Z,51.85
2017-05-25T19:11:35.175Z,40.13
2017-05-25T19:14:03.139Z,39.12
2017-05-25T19:16:30.826Z,21.08
2017-05-25T19:18:58.501Z,18.70
2017-05-25T19:21:26.204Z,27.93
2017-05-25T19:23:54.665Z,24.63
2017-05-25T19:26:22.381Z,23.12
2017-05-25T19:28:50.052Z,46.92
2017-05-25T19:31:17.717Z,86.17
2017-05-25T19:33:45.413Z,110.22
2017-05-25T19:36:13.530Z,186.02
2017-05-25T19:38:41.257Z,114.90
2017-05-25T19:41:09.701Z,63.62
2017-05-25T19:43:37.361Z,88.67
2017-05-25T19:46:05.108Z,85.90
2017-05-25T19:48:32.823Z,95.92
2017-05-25T19:51:00.550Z,67.93
2017-05-25T19:53:28.317Z,65.83
2017-05-25T19:55:56.769Z,76.12
2017-05-25T19:58:24.464Z,47.18
2017-05-25T20:00:52.950Z,55.22
2017-05-25T20:03:20.988Z,33.88
2017-05-25T20:05:49.418Z,23.82
2017-05-25T20:08:17.069Z,12.35
2017-05-25T20:10:45.508Z,11.53
2017-05-25T20:13:13.919Z,10.40
2017-05-25T20:15:41.899Z,9.65
2017-05-25T20:18:09.541Z,7.82
2017-05-25T20:20:37.185Z,9.20
2017-05-25T20:23:04.861Z,9.07
2017-05-25T20:25:32.525Z,8.42
2017-05-25T20:28:00.517Z,9.07
2017-05-25T20:30:28.156Z,9.60
2017-05-25T20:32:55.823Z,10.15
2017-05-25T20:35:23.554Z,9.30
2017-05-25T20:37:51.213Z,11.00
2017-05-25T20:40:20.029Z,10.58
2017-05-25T20:42:47.704Z,15.92
2017-05-25T20:45:15.392Z,10.57
2017-05-25T20:47:43.857Z,25.25
2017-05-25T20:50:11.582Z,12.57
2017-05-25T20:52:39.551Z,14.67
2017-05-25T20:55:07.218Z,13.52
2017-05-25T20:57:34.881Z,15.95
2017-05-25T21:00:03.332Z,15.75
2017-05-25T21:02:30.984Z,12.15
2017-05-25T21:04:58.708Z,11.07
2017-05-25T21:07:26.357Z,12.10
2017-05-25T21:09:54.318Z,13.05
2017-05-25T21:12:22.006Z,9.25
2017-05-25T21:14:49.661Z,10.48
2017-05-25T21:17:18.108Z,10.70
2017-05-25T21:19:46.529Z,10.75
2017-05-25T21:22:14.501Z,11.88
2017-05-25T21:24:42.155Z,10.50
2017-05-25T21:27:09.820Z,12.20
2017-05-25T21:29:37.563Z,10.35
2017-05-25T21:32:05.217Z,12.05
2017-05-25T21:34:33.328Z,12.23
2017-05-25T21:37:01.018Z,14.35
2017-05-25T21:39:28.689Z,12.08
2017-05-25T21:41:56.373Z,12.53
2017-05-25T21:44:24.801Z,13.82
2017-05-25T21:46:52.802Z,12.97
2017-05-25T21:49:20.470Z,11.52
2017-05-25T21:51:48.127Z,10.12
2017-05-25T21:54:15.804Z,11.17
2017-05-25T21:56:44.221Z,10.07
2017-05-25T21:59:12.273Z,11.63
2017-05-25T22:01:39.925Z,11.43
2017-05-25T22:04:08.363Z,12.03
2017-05-25T22:06:36.056Z,12.17
2017-05-25T22:09:03.723Z,11.30
2017-05-25T22:11:31.716Z,11.72
2017-05-25T22:13:59.382Z,10.20
2017-05-25T22:16:27.033Z,13.58
2017-05-25T22:18:54.796Z,13.30
2017-05-25T22:21:23.210Z,12.10
2017-05-25T22:23:52.005Z,12.37
2017-05-25T22:26:19.778Z,11.82
2017-05-25T22:28:47.434Z,13.88
2017-05-25T22:31:15.882Z,13.18
2017-05-25T22:33:44.304Z,14.15
2017-05-25T22:36:12.292Z,13.82
2017-05-25T22:38:39.952Z,12.82
2017-05-25T22:41:08.368Z,12.68
2017-05-25T22:43:36.059Z,12.55
2017-05-25T22:46:04.472Z,14.38
2017-05-25T22:48:32.456Z,10.72
2017-05-25T22:51:00.106Z,11.90
2017-05-25T22:53:28.541Z,12.83
2017-05-25T22:55:56.228Z,14.60
2017-05-25T22:58:23.877Z,14.00
2017-05-25T23:00:51.920Z,12.97
2017-05-25T23:03:19.572Z,12.50
2017-05-25T23:05:47.228Z,13.43
2017-05-25T23:08:14.896Z,14.60
2017-05-25T23:10:43.313Z,12.75
2017-05-25T23:13:11.277Z,14.77
2017-05-25T23:15:38.941Z,15.30
2017-05-25T23:18:06.602Z,16.10
2017-05-25T23:20:34.350Z,14.27
2017-05-25T23:23:01.998Z,14.53
2017-05-25T23:25:30.786Z,12.22
2017-05-25T23:27:58.437Z,13.25
2017-05-25T23:30:26.119Z,13.20
2017-05-25T23:32:53.821Z,11.60
2017-05-25T23:35:22.245Z,15.57
2017-05-25T23:37:51.017Z,12.37
2017-05-25T23:40:18.660Z,12.53
2017-05-25T23:42:46.322Z,14.58
2017-05-25T23:45:14.001Z,14.33
2017-05-25T23:47:41.659Z,17.17
2017-05-25T23:50:09.663Z,14.90
2017-05-25T23:52:37.309Z,13.37
2017-05-25T23:55:04.957Z,11.97
2017-05-25T23:57:33.402Z,14.98
